Time;durP1;ratioP1;P1;durP2;ratioP2;P2;SDS_P1;SDS_P2;PMS_P1;PMS_P2;Temp;Humidity;BMP_temperature;BMP_pressure;BME280_temperature;BME280_humidity;BME280_pressure;Samples;Min_cycle;Max_cycle;Signal;HPM_P1;HPM_P2
2024/04/15 00:00:29;;;;;;;4.90;4.60;;;18.40;99.90;;;;;;5430564;26;20463;-75
2024/04/15 00:02:59;;;;;;;5.47;5.03;;;18.30;99.90;;;;;;5424636;26;20472;-74
2024/04/15 00:05:26;;;;;;;5.37;4.93;;;18.30;99.90;;;;;;5429438;26;20475;-76
2024/04/15 00:07:58;;;;;;;4.70;4.40;;;18.20;99.90;;;;;;5433501;26;20457;-74
2024/04/15 00:10:26;;;;;;;5.27;4.40;;;18.20;99.90;;;;;;5434774;26;20514;-77
2024/04/15 00:12:56;;;;;;;4.60;4.20;;;18.20;99.90;;;;;;5431171;26;20638;-77
2024/04/15 00:15:23;;;;;;;4.87;4.57;;;18.20;99.90;;;;;;5429111;26;20460;-78
2024/04/15 00:17:53;;;;;;;5.10;4.40;;;18.20;99.90;;;;;;5435423;26;20520;-75
2024/04/15 00:20:20;;;;;;;4.20;3.90;;;18.30;99.90;;;;;;5430884;26;20468;-78
2024/04/15 00:22:50;;;;;;;4.70;4.30;;;18.30;99.90;;;;;;5431777;26;20555;-79
2024/04/15 00:25:20;;;;;;;5.10;4.60;;;18.20;99.90;;;;;;5436751;26;20458;-76
2024/04/15 00:27:50;;;;;;;3.70;3.50;;;18.10;99.90;;;;;;5434239;26;20773;-78
2024/04/15 00:30:17;;;;;;;4.80;4.47;;;18.20;99.90;;;;;;5439199;26;20463;-81
2024/04/15 00:32:47;;;;;;;4.20;3.80;;;18.20;99.90;;;;;;5436968;26;20893;-79
2024/04/15 00:35:14;;;;;;;4.13;3.93;;;18.20;99.90;;;;;;5436101;26;20528;-78
2024/04/15 00:37:44;;;;;;;4.30;4.00;;;18.20;99.90;;;;;;5428140;26;20592;-79
2024/04/15 00:40:12;;;;;;;4.20;4.00;;;18.30;99.90;;;;;;5436354;26;20530;-78
2024/04/15 00:42:44;;;;;;;3.80;3.60;;;18.30;99.90;;;;;;5423166;26;20483;-76
2024/04/15 00:45:28;;;;;;;4.70;4.40;;;18.30;99.90;;;;;;5434111;26;21360;-76
2024/04/15 00:47:58;;;;;;;4.30;4.10;;;18.30;99.90;;;;;;5433261;26;20597;-79
2024/04/15 00:50:27;;;;;;;4.93;4.63;;;18.30;99.90;;;;;;5437668;26;20447;-76
2024/04/15 00:53:01;;;;;;;3.70;3.50;;;18.30;99.90;;;;;;5427493;26;20473;-77
2024/04/15 00:55:29;;;;;;;4.20;3.90;;;18.20;99.90;;;;;;5434912;26;20470;-76
2024/04/15 00:58:03;;;;;;;3.33;3.10;;;18.20;99.90;;;;;;5430917;26;20463;-79
2024/04/15 01:00:31;;;;;;;3.00;2.83;;;18.30;99.90;;;;;;5432899;26;20476;-77
2024/04/15 01:03:01;;;;;;;3.30;3.00;;;18.30;99.90;;;;;;5436808;26;20580;-78
2024/04/15 01:05:28;;;;;;;2.90;2.73;;;18.30;99.90;;;;;;5437474;26;20471;-78
2024/04/15 01:07:58;;;;;;;3.13;2.93;;;18.30;99.90;;;;;;5434420;26;20890;-75
2024/04/15 01:10:25;;;;;;;3.50;3.20;;;18.30;99.90;;;;;;5430051;26;20527;-75
2024/04/15 01:12:55;;;;;;;2.80;2.70;;;18.30;99.90;;;;;;5432635;26;20472;-78
2024/04/15 01:15:25;;;;;;;2.40;2.30;;;18.30;99.90;;;;;;5429249;26;20463;-76
2024/04/15 01:17:57;;;;;;;2.30;2.20;;;18.30;99.90;;;;;;5428719;26;20474;-77
2024/04/15 01:20:24;;;;;;;6.20;3.00;;;18.30;99.90;;;;;;5433841;26;20524;-77
2024/04/15 01:22:57;;;;;;;2.20;2.00;;;18.30;99.90;;;;;;5429019;26;21605;-76
2024/04/15 01:25:27;;;;;;;4.37;2.40;;;18.30;99.90;;;;;;5439315;26;20594;-76
2024/04/15 01:27:58;;;;;;;2.60;2.50;;;18.30;99.90;;;;;;5427724;26;21115;-78
2024/04/15 01:30:26;;;;;;;2.67;2.47;;;18.30;99.90;;;;;;5437020;26;20465;-77
2024/04/15 01:32:56;;;;;;;2.20;2.00;;;18.30;99.90;;;;;;5434784;26;20878;-76
2024/04/15 01:35:23;;;;;;;2.17;2.07;;;18.20;99.90;;;;;;5436731;26;20870;-77
2024/04/15 01:37:53;;;;;;;2.67;2.47;;;18.10;99.90;;;;;;5435847;26;20531;-77
2024/04/15 01:40:20;;;;;;;2.27;2.17;;;18.10;99.90;;;;;;5431043;26;20597;-79
2024/04/15 01:42:53;;;;;;;2.50;2.30;;;18.10;99.90;;;;;;5434027;26;21294;-77
2024/04/15 01:45:21;;;;;;;2.50;2.30;;;18.10;99.90;;;;;;5430296;26;21340;-77
2024/04/15 01:47:51;;;;;;;2.10;2.00;;;18.10;99.90;;;;;;5434884;26;20927;-77
2024/04/15 01:50:20;;;;;;;2.33;2.23;;;18.10;99.90;;;;;;5436162;26;20521;-76
2024/04/15 01:52:49;;;;;;;2.37;2.27;;;18.20;99.90;;;;;;5437235;26;20925;-79
2024/04/15 01:55:17;;;;;;;2.30;2.10;;;18.10;99.90;;;;;;5429261;26;20459;-78
2024/04/15 01:57:47;;;;;;;2.30;2.20;;;18.10;99.90;;;;;;5426680;26;20482;-76
2024/04/15 02:00:16;;;;;;;2.00;1.90;;;18.10;99.90;;;;;;5434186;26;20519;-80
2024/04/15 02:02:46;;;;;;;2.20;2.10;;;18.10;99.90;;;;;;5435773;26;20521;-78
2024/04/15 02:05:14;;;;;;;2.30;2.10;;;18.10;99.90;;;;;;5433542;26;20490;-78
2024/04/15 02:07:44;;;;;;;2.80;2.30;;;18.00;99.90;;;;;;5431234;26;20473;-76
2024/04/15 02:10:11;;;;;;;2.30;2.10;;;18.00;99.90;;;;;;5433461;26;20557;-80
2024/04/15 02:12:41;;;;;;;2.67;2.47;;;18.00;99.90;;;;;;5436195;26;20484;-75
2024/04/15 02:15:08;;;;;;;2.10;1.90;;;18.00;99.90;;;;;;5431643;26;20463;-78
2024/04/15 02:17:40;;;;;;;2.70;2.50;;;18.00;99.90;;;;;;5431694;26;20525;-78
2024/04/15 02:20:08;;;;;;;2.07;1.73;;;18.00;99.90;;;;;;5431253;26;20530;-77
2024/04/15 02:22:38;;;;;;;2.90;2.27;;;18.00;99.90;;;;;;5437660;26;20510;-78
2024/04/15 02:25:05;;;;;;;3.27;2.90;;;18.00;99.90;;;;;;5430702;26;20643;-78
2024/04/15 02:27:35;;;;;;;2.27;2.17;;;18.00;99.90;;;;;;5437516;26;20471;-78
2024/04/15 02:30:03;;;;;;;2.50;2.30;;;18.00;99.90;;;;;;5433788;26;20526;-79
2024/04/15 02:32:33;;;;;;;3.03;2.83;;;17.90;99.90;;;;;;5433883;26;20456;-79
2024/04/15 02:35:03;;;;;;;3.80;2.50;;;17.90;99.90;;;;;;5435707;26;20524;-76
2024/04/15 02:37:33;;;;;;;7.33;2.30;;;17.90;99.90;;;;;;5432790;26;20459;-78
2024/04/15 02:40:00;;;;;;;4.07;2.33;;;17.90;99.90;;;;;;5435584;26;20518;-78
2024/04/15 02:42:30;;;;;;;2.20;2.10;;;18.00;99.90;;;;;;5423018;26;20548;-77
2024/04/15 02:44:58;;;;;;;3.40;2.67;;;18.00;99.90;;;;;;5431894;26;20532;-78
2024/04/15 02:47:28;;;;;;;2.60;2.50;;;18.00;99.90;;;;;;5428775;26;20467;-78
2024/04/15 02:49:55;;;;;;;2.50;2.30;;;18.00;99.90;;;;;;5427294;26;20475;-78
2024/04/15 02:52:27;;;;;;;2.60;2.40;;;17.90;99.90;;;;;;5432868;26;20480;-76
2024/04/15 02:54:55;;;;;;;3.47;2.33;;;17.80;99.90;;;;;;5431763;26;20474;-77
2024/04/15 02:57:24;;;;;;;2.63;2.43;;;17.80;99.90;;;;;;5430239;26;20467;-77
2024/04/15 02:59:52;;;;;;;2.90;2.37;;;17.70;99.90;;;;;;5433542;26;20521;-77
2024/04/15 03:02:21;;;;;;;3.47;3.20;;;17.70;99.90;;;;;;5438808;26;20474;-78
2024/04/15 03:04:49;;;;;;;2.40;2.20;;;17.70;99.90;;;;;;5438861;26;20474;-79
2024/04/15 03:07:19;;;;;;;5.67;3.03;;;17.70;99.90;;;;;;5438449;26;20524;-80
2024/04/15 03:09:52;;;;;;;4.07;3.03;;;17.70;99.90;;;;;;5432910;26;20464;-77
2024/04/15 03:12:22;;;;;;;3.80;3.40;;;17.70;99.90;;;;;;5435033;26;20959;-75
2024/04/15 03:14:49;;;;;;;2.50;2.30;;;17.70;99.90;;;;;;5433503;26;20549;-79
2024/04/15 03:17:19;;;;;;;2.60;2.40;;;17.80;99.90;;;;;;5440945;26;20466;-79
2024/04/15 03:19:51;;;;;;;2.63;2.20;;;17.80;99.90;;;;;;5441017;26;20527;-78
2024/04/15 03:22:21;;;;;;;3.97;2.53;;;17.80;99.90;;;;;;5439930;26;20492;-76
2024/04/15 03:24:51;;;;;;;3.33;2.43;;;17.70;99.90;;;;;;5439782;26;20463;-76
2024/04/15 03:27:21;;;;;;;3.10;2.57;;;17.70;99.90;;;;;;5435770;26;20463;-79
2024/04/15 03:29:48;;;;;;;4.07;2.60;;;17.70;99.90;;;;;;5428137;26;20526;-75
2024/04/15 03:32:18;;;;;;;2.60;2.50;;;17.70;99.90;;;;;;5432825;26;20479;-79
2024/04/15 03:34:45;;;;;;;2.50;2.30;;;17.70;99.90;;;;;;5432236;26;20468;-77
2024/04/15 03:37:15;;;;;;;3.63;3.43;;;17.70;99.90;;;;;;5438414;26;20538;-79
2024/04/15 03:39:45;;;;;;;2.73;2.53;;;17.70;99.90;;;;;;5439377;26;20533;-76
2024/04/15 03:42:17;;;;;;;2.90;2.70;;;17.70;99.90;;;;;;5435815;26;20497;-76
2024/04/15 03:44:45;;;;;;;2.70;2.50;;;17.70;99.90;;;;;;5433741;26;20458;-79
2024/04/15 03:47:15;;;;;;;2.93;2.63;;;17.80;99.90;;;;;;5439422;26;20478;-76
2024/04/15 03:49:42;;;;;;;3.40;2.30;;;17.70;99.90;;;;;;5425758;26;20526;-79
2024/04/15 03:52:12;;;;;;;2.90;2.60;;;17.70;99.90;;;;;;5442688;26;20450;-76
2024/04/15 03:54:39;;;;;;;3.00;2.13;;;17.60;99.90;;;;;;5430915;26;20532;-75
2024/04/15 03:57:09;;;;;;;3.30;2.23;;;17.60;99.90;;;;;;5441844;26;20860;-74
2024/04/15 03:59:41;;;;;;;2.50;2.40;;;17.60;99.90;;;;;;5433593;26;20886;-75
2024/04/15 04:02:09;;;;;;;5.20;2.37;;;17.60;99.90;;;;;;5425981;26;20795;-77
2024/04/15 04:04:40;;;;;;;2.30;2.20;;;17.60;99.90;;;;;;5430171;26;20467;-79
2024/04/15 04:07:07;;;;;;;3.03;2.57;;;17.60;99.90;;;;;;5433417;26;20523;-75
2024/04/15 04:09:37;;;;;;;2.40;2.30;;;17.60;99.90;;;;;;5431081;26;20512;-76
2024/04/15 04:12:05;;;;;;;3.73;2.50;;;17.60;99.90;;;;;;5441307;26;20479;-79
2024/04/15 04:14:35;;;;;;;2.10;2.00;;;17.60;99.90;;;;;;5432239;26;20475;-78
2024/04/15 04:17:05;;;;;;;2.40;2.20;;;17.60;99.90;;;;;;5438812;26;20479;-79
2024/04/15 04:19:35;;;;;;;4.80;2.43;;;17.50;99.90;;;;;;5425977;26;20585;-77
2024/04/15 04:22:02;;;;;;;2.43;2.23;;;17.50;99.90;;;;;;5432026;26;20523;-77
2024/04/15 04:24:33;;;;;;;2.80;2.60;;;17.50;99.90;;;;;;5432124;26;20488;-78
2024/04/15 04:27:00;;;;;;;3.73;3.00;;;17.40;99.90;;;;;;5435135;26;20467;-78
2024/04/15 04:29:30;;;;;;;2.00;1.90;;;17.30;99.90;;;;;;5430459;26;20574;-78
2024/04/15 04:31:57;;;;;;;2.83;2.73;;;17.30;99.90;;;;;;5426699;26;21047;-76
2024/04/15 04:34:30;;;;;;;2.77;2.57;;;17.40;99.90;;;;;;5435195;26;20612;-79
2024/04/15 04:36:58;;;;;;;2.60;2.40;;;17.30;99.90;;;;;;5430441;26;20578;-79
2024/04/15 04:39:27;;;;;;;2.80;2.57;;;17.20;99.90;;;;;;5439510;26;20512;-78
2024/04/15 04:41:55;;;;;;;3.27;2.50;;;17.30;99.90;;;;;;5436365;26;20469;-76
2024/04/15 04:44:25;;;;;;;2.40;2.30;;;17.20;99.90;;;;;;5432862;26;20467;-78
2024/04/15 04:46:53;;;;;;;3.07;2.50;;;17.20;99.90;;;;;;5431077;26;20466;-79
2024/04/15 04:49:23;;;;;;;3.77;2.30;;;17.30;99.90;;;;;;5430852;26;21171;-78
2024/04/15 04:51:53;;;;;;;2.37;2.17;;;17.30;99.90;;;;;;5433341;26;20582;-79
2024/04/15 04:54:22;;;;;;;2.23;2.00;;;17.30;99.90;;;;;;5428627;26;20478;-78
2024/04/15 04:56:52;;;;;;;2.50;2.40;;;17.30;99.90;;;;;;5437007;26;20486;-77
2024/04/15 04:59:22;;;;;;;2.73;2.60;;;17.30;99.90;;;;;;5429988;26;20518;-76
2024/04/15 05:01:50;;;;;;;3.40;2.33;;;17.20;99.90;;;;;;5425835;26;20572;-75
2024/04/15 05:04:20;;;;;;;2.53;2.10;;;17.10;99.90;;;;;;5429777;26;20522;-74
2024/04/15 05:06:47;;;;;;;4.93;3.20;;;17.10;99.90;;;;;;5429104;26;20528;-76
2024/04/15 05:09:20;;;;;;;2.47;2.37;;;17.10;99.90;;;;;;5424746;26;20471;-77
2024/04/15 05:11:47;;;;;;;2.40;2.30;;;17.10;99.90;;;;;;5428625;26;20546;-76
2024/04/15 05:14:17;;;;;;;3.23;2.80;;;17.10;99.90;;;;;;5428315;26;21154;-77
2024/04/15 05:16:44;;;;;;;2.47;2.30;;;17.10;99.90;;;;;;5428873;26;20503;-76
2024/04/15 05:19:14;;;;;;;3.40;2.60;;;17.10;99.90;;;;;;5434022;26;20574;-75
2024/04/15 05:21:42;;;;;;;2.77;2.53;;;17.10;99.90;;;;;;5437809;26;20559;-75
2024/04/15 05:24:11;;;;;;;3.10;2.37;;;17.10;99.90;;;;;;5427748;26;20480;-76
2024/04/15 05:26:41;;;;;;;3.97;3.17;;;17.10;99.90;;;;;;5430321;26;20475;-78
2024/04/15 05:29:12;;;;;;;2.50;2.20;;;17.10;99.90;;;;;;5431415;26;20623;-78
2024/04/15 05:31:39;;;;;;;2.60;2.40;;;17.10;99.90;;;;;;5429942;26;20516;-77
2024/04/15 05:34:10;;;;;;;3.47;2.47;;;17.00;99.90;;;;;;5442276;26;21028;-78
2024/04/15 05:36:38;;;;;;;3.23;2.53;;;16.90;99.90;;;;;;5433417;26;20471;-79
2024/04/15 05:39:07;;;;;;;2.30;2.20;;;17.00;99.90;;;;;;5432900;26;21683;-77
2024/04/15 05:41:35;;;;;;;2.07;1.97;;;16.90;99.90;;;;;;5433150;26;20509;-78
2024/04/15 05:44:07;;;;;;;2.37;2.17;;;17.00;99.90;;;;;;5430443;26;20526;-77
2024/04/15 05:46:46;;;;;;;3.93;2.10;;;16.90;99.90;;;;;;5436412;26;20729;-77
2024/04/15 05:49:16;;;;;;;2.23;2.10;;;17.00;99.90;;;;;;5436406;26;20541;-77
2024/04/15 05:51:45;;;;;;;2.17;1.87;;;17.00;99.90;;;;;;5427818;26;20473;-75
2024/04/15 05:54:15;;;;;;;1.93;1.83;;;16.90;99.90;;;;;;5432409;26;20480;-74
2024/04/15 05:56:42;;;;;;;2.33;2.07;;;16.80;99.90;;;;;;5427259;26;20482;-76
2024/04/15 05:59:15;;;;;;;2.20;2.10;;;16.80;99.90;;;;;;5437588;26;20525;-76
2024/04/15 06:01:42;;;;;;;2.80;2.17;;;16.90;99.90;;;;;;5421660;26;21027;-75
2024/04/15 06:04:13;;;;;;;2.70;1.90;;;16.90;99.90;;;;;;5430736;26;20557;-77
2024/04/15 06:06:40;;;;;;;1.73;1.63;;;16.90;99.90;;;;;;5430279;26;20471;-76
2024/04/15 06:09:10;;;;;;;1.80;1.67;;;17.00;99.90;;;;;;5426532;26;21137;-77
2024/04/15 06:11:37;;;;;;;1.60;1.50;;;16.90;99.90;;;;;;5430706;26;20470;-77
2024/04/15 06:14:07;;;;;;;5.30;1.93;;;16.90;99.90;;;;;;5436199;26;21203;-78
2024/04/15 06:16:37;;;;;;;1.93;1.60;;;16.90;99.90;;;;;;5431509;26;20522;-76
2024/04/15 06:19:07;;;;;;;1.83;1.73;;;16.80;99.90;;;;;;5429912;26;20464;-79
2024/04/15 06:21:34;;;;;;;2.20;2.00;;;16.80;99.90;;;;;;5433847;26;20474;-77
2024/04/15 06:24:05;;;;;;;3.23;2.07;;;16.70;99.90;;;;;;5432188;26;20510;-76
2024/04/15 06:26:32;;;;;;;9.10;1.93;;;16.70;99.90;;;;;;5436115;26;20534;-79
2024/04/15 06:29:03;;;;;;;2.00;1.90;;;16.70;99.90;;;;;;5433214;26;20517;-75
2024/04/15 06:31:32;;;;;;;4.97;2.10;;;16.70;99.90;;;;;;5432176;26;20968;-77
2024/04/15 06:34:05;;;;;;;3.73;2.00;;;16.80;99.90;;;;;;5431125;26;21266;-76
2024/04/15 06:36:33;;;;;;;2.30;2.00;;;16.70;99.90;;;;;;5429988;26;20478;-77
2024/04/15 06:39:03;;;;;;;3.07;2.03;;;16.70;99.90;;;;;;5431316;26;20834;-79
2024/04/15 06:41:31;;;;;;;1.93;1.77;;;16.70;99.90;;;;;;5431383;26;21147;-78
2024/04/15 06:44:00;;;;;;;2.60;2.00;;;16.60;99.90;;;;;;5435147;26;20506;-77
2024/04/15 06:46:29;;;;;;;1.77;1.67;;;16.60;99.90;;;;;;5438648;26;20495;-76
2024/04/15 06:48:59;;;;;;;4.10;1.97;;;16.60;99.90;;;;;;5433211;26;20459;-76
2024/04/15 06:51:29;;;;;;;4.70;2.20;;;16.50;99.90;;;;;;5427797;26;20546;-78
2024/04/15 06:53:59;;;;;;;2.37;2.17;;;16.60;99.90;;;;;;5429839;26;20512;-75
2024/04/15 06:56:26;;;;;;;2.70;1.67;;;16.60;99.90;;;;;;5437336;26;21285;-76
2024/04/15 06:58:56;;;;;;;2.00;1.73;;;16.60;99.90;;;;;;5434528;26;20532;-76
2024/04/15 07:01:23;;;;;;;2.40;1.73;;;16.60;99.90;;;;;;5431026;26;21085;-79
2024/04/15 07:03:54;;;;;;;2.20;2.00;;;16.60;99.90;;;;;;5430669;26;20470;-77
2024/04/15 07:06:22;;;;;;;2.60;2.40;;;16.70;99.90;;;;;;5435306;26;20596;-76
2024/04/15 07:08:55;;;;;;;2.43;2.20;;;16.60;99.90;;;;;;5430326;26;21023;-78
2024/04/15 07:11:22;;;;;;;5.13;2.30;;;16.60;99.90;;;;;;5432716;26;21140;-77
2024/04/15 07:13:52;;;;;;;2.23;2.03;;;16.50;99.90;;;;;;5432098;26;20516;-77
2024/04/15 07:16:19;;;;;;;3.23;2.00;;;16.60;99.90;;;;;;5434336;26;20476;-74
2024/04/15 07:18:50;;;;;;;2.20;1.70;;;16.60;99.90;;;;;;5427763;26;20552;-75
2024/04/15 07:21:17;;;;;;;2.90;2.70;;;16.50;99.90;;;;;;5426659;26;20478;-78
2024/04/15 07:23:47;;;;;;;4.33;2.40;;;16.50;99.90;;;;;;5425024;26;20475;-75
2024/04/15 07:26:17;;;;;;;2.97;2.67;;;16.60;99.90;;;;;;5433611;26;20460;-75
2024/04/15 07:28:47;;;;;;;3.10;2.30;;;16.40;99.90;;;;;;5430488;26;20528;-75
2024/04/15 07:31:14;;;;;;;4.90;2.63;;;16.50;99.90;;;;;;5433767;26;20538;-78
2024/04/15 07:33:44;;;;;;;3.03;2.73;;;16.50;99.90;;;;;;5426148;26;20524;-78
2024/04/15 07:36:12;;;;;;;4.33;2.40;;;16.60;99.90;;;;;;5430297;26;21117;-74
2024/04/15 07:38:41;;;;;;;3.33;1.80;;;16.60;99.90;;;;;;5427337;26;20451;-77
2024/04/15 07:41:09;;;;;;;3.13;2.60;;;16.70;99.90;;;;;;5429392;26;20531;-78
2024/04/15 07:43:41;;;;;;;2.33;2.10;;;16.70;99.90;;;;;;5428785;26;20478;-78
2024/04/15 07:46:09;;;;;;;4.50;2.37;;;16.60;99.90;;;;;;5434782;26;20482;-78
2024/04/15 07:48:38;;;;;;;2.53;2.23;;;16.70;99.90;;;;;;5431055;26;20459;-74
2024/04/15 07:51:06;;;;;;;2.90;2.33;;;16.70;99.90;;;;;;5428571;26;20455;-76
2024/04/15 07:53:35;;;;;;;3.63;2.37;;;16.90;99.90;;;;;;5429771;26;20461;-78
2024/04/15 07:56:03;;;;;;;2.60;2.40;;;17.00;99.90;;;;;;5430779;26;20583;-76
2024/04/15 07:58:34;;;;;;;4.07;2.70;;;17.10;99.90;;;;;;5435491;26;20519;-75
2024/04/15 08:01:04;;;;;;;2.83;2.63;;;17.00;99.90;;;;;;5428222;26;20467;-77
2024/04/15 08:03:34;;;;;;;6.77;3.20;;;17.00;99.90;;;;;;5430918;26;20463;-75
2024/04/15 08:06:02;;;;;;;3.50;2.70;;;17.00;99.90;;;;;;5430424;26;20474;-78
2024/04/15 08:08:32;;;;;;;4.20;3.43;;;17.00;99.90;;;;;;5429739;26;20524;-78
2024/04/15 08:10:59;;;;;;;3.77;2.90;;;17.00;99.90;;;;;;5428388;26;20527;-78
2024/04/15 08:13:29;;;;;;;3.43;2.53;;;16.80;99.90;;;;;;5431334;26;20482;-77
2024/04/15 08:15:56;;;;;;;3.07;2.70;;;16.80;99.90;;;;;;5429198;26;21001;-78
2024/04/15 08:18:29;;;;;;;4.40;2.80;;;16.90;99.90;;;;;;5434392;26;20519;-76
2024/04/15 08:20:57;;;;;;;4.57;3.17;;;16.90;99.90;;;;;;5430158;26;20469;-75
2024/04/15 08:23:26;;;;;;;3.27;2.60;;;16.90;99.90;;;;;;5430080;26;20472;-77
2024/04/15 08:25:55;;;;;;;4.13;2.90;;;17.00;99.90;;;;;;5434131;26;20519;-78
2024/04/15 08:28:26;;;;;;;3.30;3.00;;;17.00;99.90;;;;;;5431375;26;20514;-77
2024/04/15 08:30:53;;;;;;;4.57;3.23;;;17.10;99.90;;;;;;5433678;26;20470;-74
2024/04/15 08:33:23;;;;;;;3.47;3.17;;;17.10;99.90;;;;;;5432550;26;20455;-77
2024/04/15 08:35:53;;;;;;;6.50;3.43;;;17.10;99.90;;;;;;5431228;26;20569;-75
2024/04/15 08:38:23;;;;;;;3.40;2.80;;;17.00;99.90;;;;;;5433774;26;20518;-77
2024/04/15 08:40:56;;;;;;;3.03;2.67;;;17.10;99.90;;;;;;5429774;26;20524;-76
2024/04/15 08:43:27;;;;;;;3.23;2.80;;;17.10;99.90;;;;;;5426940;26;20482;-73
2024/04/15 08:46:00;;;;;;;2.97;2.77;;;17.10;99.90;;;;;;5429117;26;20513;-76
2024/04/15 08:48:32;;;;;;;3.53;3.13;;;17.00;99.90;;;;;;5427172;26;20509;-76
2024/04/15 08:51:03;;;;;;;3.13;2.93;;;17.00;99.90;;;;;;5430648;26;20470;-75
2024/04/15 08:53:33;;;;;;;3.07;2.87;;;17.10;99.90;;;;;;5430318;26;20531;-78
2024/04/15 08:56:01;;;;;;;3.43;3.13;;;17.20;99.90;;;;;;5433067;26;21672;-77
2024/04/15 08:58:31;;;;;;;2.80;2.70;;;17.20;99.90;;;;;;5429166;26;20463;-75
2024/04/15 09:00:59;;;;;;;3.37;3.07;;;17.20;99.90;;;;;;5433837;26;20507;-76
2024/04/15 09:03:30;;;;;;;2.83;2.63;;;17.30;99.90;;;;;;5431406;26;20517;-77
2024/04/15 09:05:57;;;;;;;3.40;2.83;;;17.40;99.90;;;;;;5428786;26;20538;-78
2024/04/15 09:08:30;;;;;;;2.87;2.73;;;17.60;99.90;;;;;;5433586;26;21314;-80
2024/04/15 09:10:57;;;;;;;2.90;2.53;;;17.60;99.90;;;;;;5431554;26;20460;-78
2024/04/15 09:13:27;;;;;;;2.80;2.60;;;17.60;99.90;;;;;;5434053;26;20547;-76
2024/04/15 09:15:55;;;;;;;3.27;2.83;;;17.70;99.90;;;;;;5432516;26;20524;-75
2024/04/15 09:18:27;;;;;;;3.37;3.07;;;17.70;99.90;;;;;;5422259;26;20526;-77
2024/04/15 09:20:55;;;;;;;2.63;2.40;;;17.70;99.90;;;;;;5438650;26;21063;-75
2024/04/15 09:23:34;;;;;;;3.10;2.40;;;17.80;99.90;;;;;;5434672;26;20507;-80
2024/04/15 09:26:02;;;;;;;2.80;2.60;;;17.80;99.90;;;;;;5432607;26;20472;-75
2024/04/15 09:28:32;;;;;;;4.43;3.00;;;17.80;99.90;;;;;;5432734;26;20529;-76
2024/04/15 09:30:59;;;;;;;4.63;2.40;;;17.70;99.90;;;;;;5436584;26;20496;-78
2024/04/15 09:33:29;;;;;;;3.67;2.63;;;17.70;99.90;;;;;;5427656;26;20603;-75
2024/04/15 09:35:57;;;;;;;2.93;2.67;;;17.70;99.90;;;;;;5430691;26;20459;-76
2024/04/15 09:38:29;;;;;;;3.50;2.93;;;17.50;99.90;;;;;;5435014;26;20470;-75
2024/04/15 09:40:59;;;;;;;4.10;2.73;;;17.50;99.90;;;;;;5432078;26;20479;-78
2024/04/15 09:43:30;;;;;;;2.67;2.47;;;17.50;99.90;;;;;;5434987;26;20463;-74
2024/04/15 09:45:59;;;;;;;4.30;2.30;;;17.50;99.90;;;;;;5428017;26;20593;-79
2024/04/15 09:48:30;;;;;;;3.87;2.73;;;17.50;99.90;;;;;;5432238;26;20577;-75
2024/04/15 09:51:04;;;;;;;4.03;2.47;;;17.60;99.90;;;;;;5427374;26;20523;-77
2024/04/15 09:53:39;;;;;;;2.93;2.00;;;17.70;99.90;;;;;;5433017;26;21017;-79
2024/04/15 09:56:12;;;;;;;2.47;2.37;;;17.60;99.90;;;;;;5430719;26;20524;-76
2024/04/15 09:58:45;;;;;;;3.10;2.80;;;17.60;99.90;;;;;;5436567;26;20459;-77
2024/04/15 10:01:18;;;;;;;2.27;2.17;;;17.70;99.90;;;;;;5430651;26;21082;-77
2024/04/15 10:03:53;;;;;;;3.47;2.03;;;17.70;99.90;;;;;;5427094;26;21036;-77
2024/04/15 10:06:26;;;;;;;2.50;2.10;;;17.70;99.90;;;;;;5432470;26;20525;-77
2024/04/15 10:08:57;;;;;;;1.90;1.80;;;17.60;99.90;;;;;;5438244;26;21431;-76
2024/04/15 10:11:29;;;;;;;2.67;2.43;;;17.60;99.90;;;;;;5433447;26;20482;-78
2024/04/15 10:14:00;;;;;;;3.07;2.27;;;17.70;99.90;;;;;;5436794;26;20479;-79
2024/04/15 10:16:27;;;;;;;2.77;2.03;;;17.80;99.90;;;;;;5435141;26;20480;-76
2024/04/15 10:19:08;;;;;;;6.20;2.47;;;17.80;99.90;;;;;;5426785;26;20510;-76
2024/04/15 10:21:35;;;;;;;5.77;2.13;;;17.90;99.90;;;;;;5436164;26;20582;-76
2024/04/15 10:24:06;;;;;;;3.33;2.17;;;17.90;99.90;;;;;;5434811;26;20455;-78
2024/04/15 10:26:36;;;;;;;2.50;2.10;;;17.80;99.90;;;;;;5436596;26;20471;-79
2024/04/15 10:29:19;;;;;;;2.20;2.00;;;17.80;99.90;;;;;;5440353;26;20582;-78
2024/04/15 10:31:51;;;;;;;2.83;2.60;;;17.70;99.90;;;;;;5431563;26;20883;-75
2024/04/15 10:34:24;;;;;;;2.13;2.03;;;17.60;99.90;;;;;;5427414;26;20464;-75
2024/04/15 10:36:53;;;;;;;2.40;1.97;;;17.60;99.90;;;;;;5437776;26;20924;-77
2024/04/15 10:39:24;;;;;;;2.60;2.40;;;17.60;99.90;;;;;;5430858;26;20463;-76
2024/04/15 10:41:57;;;;;;;2.30;1.90;;;17.60;99.90;;;;;;5432704;26;20458;-74
2024/04/15 10:44:27;;;;;;;2.13;1.97;;;17.60;99.90;;;;;;5435299;26;21611;-79
2024/04/15 10:46:54;;;;;;;2.30;2.10;;;17.50;99.90;;;;;;5435211;26;20507;-76
2024/04/15 10:49:27;;;;;;;3.20;2.17;;;17.50;99.90;;;;;;5430844;26;20472;-74
2024/04/15 10:51:55;;;;;;;3.03;2.60;;;17.50;99.90;;;;;;5432167;26;20491;-77
2024/04/15 10:54:25;;;;;;;3.10;1.90;;;17.50;99.90;;;;;;5433551;26;20538;-79
2024/04/15 10:56:52;;;;;;;2.67;2.47;;;17.50;99.90;;;;;;5431169;26;20600;-76
2024/04/15 10:59:25;;;;;;;2.10;1.90;;;17.40;99.90;;;;;;5436630;26;20466;-75
2024/04/15 11:01:52;;;;;;;8.57;2.20;;;17.60;99.90;;;;;;5434186;26;20482;-77
2024/04/15 11:04:23;;;;;;;2.03;1.93;;;17.70;99.90;;;;;;5431611;26;21503;-78
2024/04/15 11:06:51;;;;;;;4.03;1.87;;;17.70;99.90;;;;;;5435347;26;20475;-78
2024/04/15 11:09:21;;;;;;;8.63;3.50;;;17.70;99.90;;;;;;5431519;26;20563;-73
2024/04/15 11:11:49;;;;;;;2.57;2.37;;;17.70;99.90;;;;;;5434982;26;20553;-76
2024/04/15 11:14:20;;;;;;;5.47;5.03;;;17.70;99.90;;;;;;5436872;26;20475;-80
2024/04/15 11:16:51;;;;;;;2.37;2.10;;;17.70;99.90;;;;;;5437333;26;20485;-76
2024/04/15 11:19:22;;;;;;;2.63;2.40;;;17.70;99.90;;;;;;5439625;26;20521;-80
2024/04/15 11:22:01;;;;;;;2.60;2.23;;;17.70;99.90;;;;;;5433170;26;20536;-77
2024/04/15 11:24:33;;;;;;;3.17;2.70;;;17.60;99.90;;;;;;5439245;26;20478;-79
2024/04/15 11:27:04;;;;;;;2.30;2.20;;;17.60;99.90;;;;;;5434723;26;21462;-75
2024/04/15 11:29:35;;;;;;;3.27;2.80;;;17.60;99.90;;;;;;5427283;26;21427;-80
2024/04/15 11:32:25;;;;;;;2.67;2.47;;;17.60;99.90;;;;;;5435045;26;20460;-75
2024/04/15 11:34:56;;;;;;;2.83;2.63;;;17.60;99.90;;;;;;5437015;26;20471;-76
2024/04/15 11:37:23;;;;;;;5.93;5.43;;;17.50;99.90;;;;;;5432838;26;20492;-76
2024/04/15 11:39:54;;;;;;;3.37;3.03;;;17.30;99.90;;;;;;5436435;26;21372;-78
2024/04/15 11:42:22;;;;;;;3.10;2.50;;;17.20;99.90;;;;;;5432306;26;21050;-79
2024/04/15 11:44:52;;;;;;;3.50;3.20;;;17.20;99.90;;;;;;5438669;26;20520;-76
2024/04/15 11:47:20;;;;;;;4.33;3.50;;;17.00;99.90;;;;;;5430829;26;20475;-78
2024/04/15 11:49:53;;;;;;;5.20;3.22;;;17.00;99.90;;;;;;5431957;26;20468;-76
2024/04/15 11:52:21;;;;;;;4.07;3.67;;;16.90;99.90;;;;;;5432590;26;20743;-75
2024/04/15 11:54:51;;;;;;;3.20;2.90;;;16.70;99.90;;;;;;5439184;26;20889;-77
2024/04/15 11:57:19;;;;;;;9.20;3.73;;;16.90;99.90;;;;;;5433844;26;20519;-77
2024/04/15 11:59:49;;;;;;;5.23;3.33;;;16.90;99.90;;;;;;5437385;26;20468;-80
2024/04/15 12:02:18;;;;;;;2.90;2.70;;;17.00;99.90;;;;;;5434680;26;20464;-76
2024/04/15 12:04:48;;;;;;;3.70;3.40;;;17.10;99.90;;;;;;5434941;26;20475;-75
2024/04/15 12:07:19;;;;;;;4.00;2.83;;;17.00;99.90;;;;;;5432015;26;20520;-78
2024/04/15 12:09:49;;;;;;;6.20;3.70;;;17.10;99.90;;;;;;5432872;26;20539;-78
2024/04/15 12:12:20;;;;;;;4.00;3.63;;;17.00;99.90;;;;;;5438989;26;20468;-80
2024/04/15 12:14:50;;;;;;;3.00;2.80;;;17.00;99.90;;;;;;5435471;26;20559;-78
2024/04/15 12:17:17;;;;;;;3.43;3.13;;;17.10;99.90;;;;;;5433199;26;20456;-77
2024/04/15 12:19:47;;;;;;;5.27;3.37;;;17.10;99.90;;;;;;5435936;26;20460;-78
2024/04/15 12:22:15;;;;;;;4.40;3.63;;;17.10;99.90;;;;;;5430735;26;20458;-78
2024/04/15 12:24:47;;;;;;;4.00;3.70;;;17.20;99.90;;;;;;5428758;26;20952;-76
2024/04/15 12:27:33;;;;;;;3.50;3.20;;;17.20;99.90;;;;;;5430795;26;20470;-79
2024/04/15 12:30:09;;;;;;;3.70;3.30;;;17.00;99.90;;;;;;5432583;26;21072;-77
2024/04/15 12:32:41;;;;;;;4.70;3.67;;;17.20;99.90;;;;;;5431133;26;20552;-78
2024/04/15 12:35:10;;;;;;;5.20;4.10;;;17.20;99.90;;;;;;5437656;26;20466;-78
2024/04/15 12:37:40;;;;;;;3.73;3.20;;;17.10;99.90;;;;;;5431467;26;20468;-77
2024/04/15 12:40:11;;;;;;;6.37;3.40;;;17.10;99.90;;;;;;5435877;26;20515;-81
2024/04/15 12:42:41;;;;;;;4.60;3.80;;;17.00;99.90;;;;;;5434615;26;20475;-77
2024/04/15 12:45:10;;;;;;;6.53;4.60;;;17.10;99.90;;;;;;5445025;26;21218;-76
2024/04/15 12:47:40;;;;;;;3.63;3.43;;;17.20;99.90;;;;;;5431622;26;21074;-75
2024/04/15 12:50:08;;;;;;;4.27;3.63;;;17.30;99.90;;;;;;5433847;26;20903;-76
2024/04/15 12:52:38;;;;;;;3.37;3.17;;;17.40;99.90;;;;;;5429814;26;20468;-77
2024/04/15 12:55:06;;;;;;;5.00;3.63;;;17.40;99.90;;;;;;5432011;26;20546;-76
2024/04/15 12:57:38;;;;;;;2.93;2.83;;;17.50;99.90;;;;;;5432867;26;20531;-78
2024/04/15 13:00:08;;;;;;;3.47;3.27;;;17.70;99.90;;;;;;5430172;26;20464;-77